createdAt,value
2019-01-17T00:00:03.347Z,0
2019-01-17T00:00:43.950Z,0
2019-01-17T00:01:24.576Z,0
2019-01-17T00:02:05.172Z,0
2019-01-17T00:02:45.776Z,0
2019-01-17T00:03:26.406Z,0
2019-01-17T00:04:07.049Z,0
2019-01-17T00:04:47.658Z,0
2019-01-17T00:05:28.267Z,0
2019-01-17T00:06:08.866Z,0
2019-01-17T00:06:49.461Z,0
2019-01-17T00:07:30.060Z,0
2019-01-17T00:08:10.668Z,0
2019-01-17T00:08:51.280Z,0
2019-01-17T00:09:31.926Z,0
2019-01-17T00:10:12.538Z,0
2019-01-17T00:10:53.176Z,0
2019-01-17T00:11:33.793Z,0
2019-01-17T00:12:14.395Z,0
2019-01-17T00:12:55.062Z,0
2019-01-17T00:13:35.662Z,0
2019-01-17T00:14:16.288Z,0
2019-01-17T00:14:56.903Z,0
2019-01-17T00:15:37.515Z,0
2019-01-17T00:16:18.152Z,0
2019-01-17T00:16:58.764Z,0
2019-01-17T00:17:39.372Z,0
2019-01-17T00:18:19.971Z,0
2019-01-17T00:19:00.572Z,0
2019-01-17T00:19:41.199Z,0
2019-01-17T00:20:21.836Z,0
2019-01-17T00:21:02.446Z,0
2019-01-17T00:21:43.072Z,0
2019-01-17T00:22:23.672Z,0
2019-01-17T00:23:04.274Z,0
2019-01-17T00:23:44.897Z,0
2019-01-17T00:24:25.494Z,0
2019-01-17T00:25:06.213Z,0
2019-01-17T00:25:46.815Z,0
2019-01-17T00:26:27.416Z,0
2019-01-17T00:27:08.018Z,0
2019-01-17T00:27:48.678Z,0
2019-01-17T00:28:29.282Z,0
2019-01-17T00:29:09.938Z,0
2019-01-17T00:29:50.554Z,0
2019-01-17T00:30:31.156Z,0
2019-01-17T00:31:11.784Z,0
2019-01-17T00:31:52.411Z,0
2019-01-17T00:32:33.212Z,0
2019-01-17T00:33:13.722Z,0
2019-01-17T00:33:54.330Z,0
2019-01-17T00:34:34.922Z,0
2019-01-17T00:35:15.551Z,0
2019-01-17T00:35:56.162Z,0
2019-01-17T00:36:36.768Z,0
2019-01-17T00:37:17.402Z,0
2019-01-17T00:37:58.018Z,0
2019-01-17T00:38:38.626Z,0
2019-01-17T00:39:19.328Z,0
2019-01-17T00:39:59.949Z,0
2019-01-17T00:40:40.566Z,0
2019-01-17T00:41:21.199Z,0
2019-01-17T00:42:01.892Z,0
2019-01-17T00:42:42.510Z,0
2019-01-17T00:43:23.140Z,0
2019-01-17T00:44:03.740Z,0
2019-01-17T00:44:44.352Z,0
2019-01-17T00:45:25.016Z,0
2019-01-17T00:46:05.634Z,0
2019-01-17T00:46:46.320Z,0
2019-01-17T00:47:27.134Z,0
2019-01-17T00:48:07.750Z,0
2019-01-17T00:48:48.392Z,0
2019-01-17T00:49:29.018Z,0
2019-01-17T00:50:09.666Z,0
2019-01-17T00:50:50.282Z,0
2019-01-17T00:51:30.899Z,0
2019-01-17T00:52:11.510Z,0
2019-01-17T00:52:52.133Z,0
2019-01-17T00:53:32.748Z,0
2019-01-17T00:54:13.351Z,0
2019-01-17T00:54:53.968Z,0
2019-01-17T00:55:34.574Z,0
2019-01-17T00:56:15.208Z,0
2019-01-17T00:56:55.820Z,0
2019-01-17T00:57:36.434Z,0
2019-01-17T00:58:17.342Z,0
2019-01-17T00:58:57.964Z,0
2019-01-17T00:59:38.584Z,0
2019-01-17T01:00:19.184Z,0
2019-01-17T01:00:59.796Z,0
2019-01-17T01:01:40.394Z,0
2019-01-17T01:02:21.044Z,0
2019-01-17T01:03:01.623Z,0
2019-01-17T01:03:42.236Z,0
2019-01-17T01:04:22.876Z,0
2019-01-17T01:05:03.494Z,0
2019-01-17T01:05:44.090Z,0
2019-01-17T01:06:24.748Z,0
2019-01-17T01:07:05.363Z,0
2019-01-17T01:07:45.959Z,0
2019-01-17T01:08:26.563Z,0
2019-01-17T01:09:07.176Z,0
2019-01-17T01:09:47.776Z,0
2019-01-17T01:12:07.904Z,0
2019-01-17T01:12:48.518Z,0
2019-01-17T01:13:29.115Z,0
2019-01-17T01:14:09.724Z,0
2019-01-17T01:14:50.324Z,0
2019-01-17T01:15:30.934Z,0
2019-01-17T01:16:11.538Z,0
2019-01-17T01:16:52.128Z,0
2019-01-17T01:17:32.908Z,0
2019-01-17T01:18:13.527Z,0
2019-01-17T01:18:54.152Z,0
2019-01-17T01:19:34.790Z,0
2019-01-17T01:20:15.385Z,0
2019-01-17T01:20:55.984Z,0
2019-01-17T01:21:36.586Z,0
2019-01-17T01:22:17.199Z,0
2019-01-17T01:22:57.814Z,0
2019-01-17T01:23:38.440Z,0
2019-01-17T01:24:19.068Z,0
2019-01-17T01:24:59.663Z,0
2019-01-17T01:25:40.304Z,0
2019-01-17T01:26:20.909Z,0
2019-01-17T01:27:01.520Z,0
2019-01-17T01:27:42.118Z,0
2019-01-17T01:28:22.726Z,0
2019-01-17T01:29:03.324Z,0
2019-01-17T01:29:43.936Z,0
2019-01-17T01:30:24.544Z,0
2019-01-17T01:31:05.170Z,0
2019-01-17T01:31:45.782Z,0
2019-01-17T01:32:26.375Z,0
2019-01-17T01:33:06.988Z,0
2019-01-17T01:33:47.590Z,0
2019-01-17T01:34:28.343Z,0
2019-01-17T01:35:08.994Z,0
2019-01-17T01:35:49.614Z,0
2019-01-17T01:36:30.214Z,0
2019-01-17T01:37:10.817Z,0
2019-01-17T01:37:51.425Z,0
2019-01-17T01:38:32.024Z,0
2019-01-17T01:39:12.630Z,0
2019-01-17T01:39:53.234Z,0
2019-01-17T01:40:33.845Z,0
2019-01-17T01:41:14.458Z,0
2019-01-17T01:41:55.096Z,0
2019-01-17T01:42:35.694Z,0
2019-01-17T01:43:16.303Z,0
2019-01-17T01:43:56.917Z,0
2019-01-17T01:44:37.544Z,0
2019-01-17T01:45:18.153Z,0
2019-01-17T01:45:58.756Z,0
2019-01-17T01:46:39.355Z,0
2019-01-17T01:47:19.963Z,0
2019-01-17T01:48:00.618Z,0
2019-01-17T01:48:41.225Z,0
2019-01-17T01:49:21.846Z,0
2019-01-17T01:50:02.442Z,0
2019-01-17T01:50:43.042Z,0
2019-01-17T01:51:23.648Z,0
2019-01-17T01:52:04.261Z,0
2019-01-17T01:52:44.863Z,0
2019-01-17T01:53:25.505Z,0
2019-01-17T01:54:06.118Z,0
2019-01-17T01:54:46.735Z,0
2019-01-17T01:55:27.360Z,0
2019-01-17T01:56:07.966Z,0
2019-01-17T01:56:48.585Z,0
2019-01-17T01:57:29.204Z,0
2019-01-17T01:58:09.803Z,0
2019-01-17T01:58:50.407Z,0
2019-01-17T01:59:31.062Z,0
2019-01-17T02:00:11.657Z,0
2019-01-17T02:00:52.262Z,0
2019-01-17T02:01:32.898Z,0
2019-01-17T02:02:13.500Z,0
2019-01-17T02:02:54.109Z,0
2019-01-17T02:03:34.735Z,0
2019-01-17T02:04:15.338Z,0
2019-01-17T02:04:55.964Z,0
2019-01-17T02:05:36.580Z,0
2019-01-17T02:06:17.180Z,0
2019-01-17T02:06:57.775Z,0
2019-01-17T02:07:38.416Z,0
2019-01-17T02:08:19.025Z,0
2019-01-17T02:08:59.637Z,0
2019-01-17T02:09:40.233Z,0
2019-01-17T02:10:20.841Z,0
2019-01-17T02:11:01.444Z,0
2019-01-17T02:11:42.071Z,0
2019-01-17T02:12:22.704Z,0
2019-01-17T02:13:03.309Z,0
2019-01-17T02:13:43.935Z,0
2019-01-17T02:14:24.539Z,0
2019-01-17T02:15:05.128Z,0
2019-01-17T02:15:45.824Z,0
2019-01-17T02:16:26.424Z,0
2019-01-17T02:17:07.030Z,0
2019-01-17T02:17:47.631Z,0
2019-01-17T02:18:28.222Z,0
2019-01-17T02:19:08.853Z,0
2019-01-17T02:19:49.467Z,0
2019-01-17T02:20:30.081Z,0
2019-01-17T02:21:10.697Z,0
2019-01-17T02:21:51.312Z,0
2019-01-17T02:22:31.934Z,0
2019-01-17T02:23:12.532Z,0
2019-01-17T02:23:53.145Z,0
2019-01-17T02:24:33.733Z,0
2019-01-17T02:25:14.347Z,0
2019-01-17T02:25:54.965Z,0
2019-01-17T02:26:35.567Z,0
2019-01-17T02:27:16.181Z,0
2019-01-17T02:27:56.782Z,0
2019-01-17T02:28:37.391Z,0
2019-01-17T02:29:17.992Z,0
2019-01-17T02:29:58.605Z,0
2019-01-17T02:30:39.237Z,0
2019-01-17T02:31:19.853Z,0
2019-01-17T02:32:00.471Z,0
2019-01-17T02:32:41.072Z,0
2019-01-17T02:33:21.665Z,0
2019-01-17T02:34:02.276Z,0
2019-01-17T02:34:42.869Z,0
2019-01-17T02:35:23.491Z,0
2019-01-17T02:36:04.112Z,0
2019-01-17T02:36:44.716Z,0
2019-01-17T02:37:25.348Z,0
2019-01-17T02:38:05.969Z,0
2019-01-17T02:38:46.573Z,0
2019-01-17T02:39:27.177Z,0
2019-01-17T02:40:07.782Z,0
2019-01-17T02:40:48.459Z,0
2019-01-17T02:41:28.987Z,0
2019-01-17T02:42:09.589Z,0
2019-01-17T02:42:50.197Z,0
2019-01-17T02:43:30.817Z,0
2019-01-17T02:44:11.450Z,0
2019-01-17T02:44:52.057Z,0
2019-01-17T02:45:32.682Z,0
2019-01-17T02:46:13.286Z,0
2019-01-17T02:46:53.885Z,0
2019-01-17T02:47:34.477Z,0
2019-01-17T02:48:15.083Z,0
2019-01-17T02:48:55.700Z,0
2019-01-17T02:49:36.312Z,0
2019-01-17T02:50:16.933Z,0
2019-01-17T02:50:57.523Z,0
2019-01-17T02:51:38.113Z,0
2019-01-17T02:52:18.716Z,0
2019-01-17T02:52:59.313Z,0
2019-01-17T02:53:39.924Z,0
2019-01-17T02:54:20.549Z,0
2019-01-17T02:55:01.173Z,0
2019-01-17T02:55:41.769Z,0
2019-01-17T02:56:22.379Z,0
2019-01-17T02:57:02.991Z,0
2019-01-17T02:57:43.611Z,0
2019-01-17T02:58:24.211Z,0
2019-01-17T02:59:04.865Z,0
2019-01-17T02:59:45.477Z,0
2019-01-17T03:00:26.091Z,0
2019-01-17T03:01:06.709Z,0
2019-01-17T03:01:47.339Z,0
2019-01-17T03:02:27.953Z,0
2019-01-17T03:03:08.550Z,0
2019-01-17T03:03:49.169Z,0
2019-01-17T03:04:29.794Z,0
2019-01-17T03:05:10.415Z,0
2019-01-17T03:05:51.023Z,0
2019-01-17T03:06:31.622Z,0
2019-01-17T03:07:12.231Z,0
2019-01-17T03:07:52.859Z,0
2019-01-17T03:08:33.472Z,0
2019-01-17T03:09:14.075Z,0
2019-01-17T03:09:54.715Z,0
2019-01-17T03:10:35.330Z,0
2019-01-17T03:11:15.937Z,0
2019-01-17T03:11:56.535Z,0
2019-01-17T03:12:37.133Z,0
2019-01-17T03:13:17.737Z,0
2019-01-17T03:13:58.349Z,0
2019-01-17T03:14:38.971Z,0
2019-01-17T03:15:19.602Z,0
2019-01-17T03:16:00.191Z,0
2019-01-17T03:16:40.843Z,0
2019-01-17T03:17:21.470Z,0
2019-01-17T03:18:02.071Z,0
2019-01-17T03:18:42.664Z,0
2019-01-17T03:19:23.264Z,0
2019-01-17T03:20:03.863Z,0
2019-01-17T03:20:44.469Z,0
2019-01-17T03:21:25.051Z,0
2019-01-17T03:22:05.659Z,0
2019-01-17T03:22:46.257Z,0
2019-01-17T03:23:26.865Z,0
2019-01-17T03:24:07.515Z,0
2019-01-17T03:24:48.119Z,0
2019-01-17T03:25:28.737Z,0
2019-01-17T03:26:09.351Z,0
2019-01-17T03:26:49.958Z,0
2019-01-17T03:27:30.562Z,0
2019-01-17T03:28:11.144Z,0
2019-01-17T03:28:51.743Z,0
2019-01-17T03:29:32.338Z,0
2019-01-17T03:30:12.945Z,0
2019-01-17T03:30:53.556Z,0
2019-01-17T03:31:34.194Z,0
2019-01-17T03:32:14.833Z,0
2019-01-17T03:32:55.447Z,0
2019-01-17T03:33:36.041Z,0
2019-01-17T03:34:16.687Z,0
2019-01-17T03:34:57.305Z,0
2019-01-17T03:35:37.915Z,0
2019-01-17T03:36:18.515Z,0
2019-01-17T03:36:59.111Z,0
2019-01-17T03:37:39.759Z,0
2019-01-17T03:38:20.370Z,0
2019-01-17T03:39:00.981Z,0
2019-01-17T03:39:41.583Z,0
2019-01-17T03:40:22.195Z,0
2019-01-17T03:41:02.827Z,0
2019-01-17T03:41:43.425Z,0
2019-01-17T03:42:24.027Z,0
2019-01-17T03:43:04.651Z,0
2019-01-17T03:43:45.281Z,0
2019-01-17T03:44:25.887Z,0
2019-01-17T03:45:06.493Z,0
2019-01-17T03:45:47.116Z,0
2019-01-17T03:46:27.725Z,0
2019-01-17T03:47:08.352Z,0
2019-01-17T03:47:48.981Z,0
2019-01-17T03:48:29.589Z,0
2019-01-17T03:49:10.196Z,0
2019-01-17T03:49:50.795Z,0
2019-01-17T03:50:31.436Z,0
2019-01-17T03:51:12.053Z,0
2019-01-17T03:51:52.659Z,0
2019-01-17T03:52:33.257Z,0
2019-01-17T03:53:13.869Z,0
2019-01-17T03:53:54.463Z,0
2019-01-17T03:54:35.079Z,0
2019-01-17T03:55:15.670Z,0
2019-01-17T03:55:56.283Z,0
2019-01-17T03:56:36.885Z,0
2019-01-17T03:57:17.491Z,0
2019-01-17T03:57:58.097Z,0
2019-01-17T03:58:38.706Z,0
2019-01-17T03:59:19.291Z,0
2019-01-17T03:59:59.889Z,0
2019-01-17T04:00:40.508Z,0
2019-01-17T04:01:21.123Z,0
2019-01-17T04:02:01.789Z,0
2019-01-17T04:02:42.442Z,0
2019-01-17T04:03:23.045Z,0
2019-01-17T04:04:03.648Z,0
2019-01-17T04:04:44.253Z,0
2019-01-17T04:05:24.857Z,0
2019-01-17T04:06:05.449Z,0
2019-01-17T04:06:46.059Z,0
2019-01-17T04:07:26.678Z,0
2019-01-17T04:08:07.305Z,0
2019-01-17T04:08:47.915Z,0
2019-01-17T04:09:28.527Z,0
2019-01-17T04:10:09.116Z,0
2019-01-17T04:10:49.707Z,0
2019-01-17T04:11:30.319Z,0
2019-01-17T04:12:10.941Z,0
2019-01-17T04:12:51.529Z,0
2019-01-17T04:13:32.153Z,0
2019-01-17T04:14:12.767Z,0
2019-01-17T04:14:53.390Z,0
2019-01-17T04:15:33.995Z,0
2019-01-17T04:16:14.591Z,0
2019-01-17T04:16:55.205Z,0
2019-01-17T04:17:35.811Z,0
2019-01-17T04:18:16.413Z,0
2019-01-17T04:18:57.079Z,0
2019-01-17T04:19:37.707Z,0
2019-01-17T04:20:18.295Z,0
2019-01-17T04:20:58.951Z,0
2019-01-17T04:21:39.567Z,0
2019-01-17T04:22:20.185Z,0
2019-01-17T04:23:00.815Z,0
2019-01-17T04:23:41.423Z,0
2019-01-17T04:24:22.040Z,0
2019-01-17T04:25:02.667Z,0
2019-01-17T04:25:43.263Z,0
2019-01-17T04:26:23.871Z,0
2019-01-17T04:27:04.483Z,0
2019-01-17T04:27:45.093Z,0
2019-01-17T04:28:25.681Z,0
2019-01-17T04:29:06.287Z,0
2019-01-17T04:29:46.939Z,0
2019-01-17T04:30:27.546Z,0
2019-01-17T04:31:08.145Z,0
2019-01-17T04:31:48.744Z,0
2019-01-17T04:32:29.347Z,0
2019-01-17T04:33:09.949Z,0
2019-01-17T04:33:50.578Z,0
2019-01-17T04:34:31.175Z,0
2019-01-17T04:35:11.793Z,0
2019-01-17T04:35:52.403Z,0
2019-01-17T04:36:33.014Z,0
2019-01-17T04:37:13.632Z,0
2019-01-17T04:37:54.251Z,0
2019-01-17T04:38:34.850Z,0
2019-01-17T04:39:15.449Z,0
2019-01-17T04:39:56.076Z,0
2019-01-17T04:40:36.752Z,0
2019-01-17T04:41:17.295Z,0
2019-01-17T04:41:57.913Z,0
2019-01-17T04:42:38.539Z,0
2019-01-17T04:43:19.142Z,0
2019-01-17T04:43:59.734Z,0
2019-01-17T04:44:40.341Z,0
2019-01-17T04:45:20.935Z,0
2019-01-17T04:46:01.566Z,0
2019-01-17T04:46:42.175Z,0
2019-01-17T04:47:22.783Z,0
2019-01-17T04:48:03.401Z,0
2019-01-17T04:48:44.037Z,0
2019-01-17T04:49:24.647Z,0
2019-01-17T04:50:05.251Z,0
2019-01-17T04:50:45.865Z,0
2019-01-17T04:51:26.491Z,0
2019-01-17T04:52:07.096Z,0
2019-01-17T04:52:47.702Z,0
2019-01-17T04:53:28.318Z,0
2019-01-17T04:54:08.960Z,0
2019-01-17T04:54:49.561Z,0
2019-01-17T04:55:30.165Z,0
2019-01-17T04:56:10.765Z,0
2019-01-17T04:56:51.360Z,0
2019-01-17T04:57:31.989Z,0
2019-01-17T04:58:12.589Z,0
2019-01-17T04:58:53.221Z,0
2019-01-17T04:59:33.851Z,0
2019-01-17T05:00:14.458Z,0
2019-01-17T05:00:55.057Z,0
2019-01-17T05:01:35.662Z,0
2019-01-17T05:02:16.278Z,0
2019-01-17T05:02:56.873Z,0
2019-01-17T05:03:37.477Z,0
2019-01-17T05:04:18.083Z,0
2019-01-17T05:04:58.707Z,0
2019-01-17T05:05:39.321Z,0
2019-01-17T05:06:19.938Z,0
2019-01-17T05:07:00.571Z,0
2019-01-17T05:07:41.169Z,0
2019-01-17T05:08:21.788Z,0
2019-01-17T05:09:02.415Z,0
2019-01-17T05:09:43.024Z,0
2019-01-17T05:10:23.641Z,0
2019-01-17T05:11:04.253Z,0
2019-01-17T05:11:44.887Z,0
2019-01-17T05:12:25.519Z,0
2019-01-17T05:13:06.131Z,0
2019-01-17T05:13:46.741Z,0
2019-01-17T05:14:27.347Z,0
2019-01-17T05:15:07.960Z,0
2019-01-17T05:15:48.605Z,0
2019-01-17T05:16:29.219Z,0
2019-01-17T05:17:09.845Z,0
2019-01-17T05:17:50.463Z,0
2019-01-17T05:18:31.069Z,0
2019-01-17T05:19:11.664Z,0
2019-01-17T05:19:52.259Z,0
2019-01-17T05:20:32.906Z,0
2019-01-17T05:21:13.501Z,0
2019-01-17T05:21:54.107Z,0
2019-01-17T05:22:34.724Z,0
2019-01-17T05:23:15.343Z,0
2019-01-17T05:23:55.948Z,0
2019-01-17T05:24:36.537Z,0
2019-01-17T05:25:17.137Z,0
2019-01-17T05:25:57.767Z,0
2019-01-17T05:26:38.387Z,0
2019-01-17T05:27:19.001Z,0
2019-01-17T05:27:59.602Z,0
2019-01-17T05:28:40.201Z,0
2019-01-17T05:29:20.875Z,0
2019-01-17T05:30:01.508Z,0
2019-01-17T05:30:42.111Z,0
2019-01-17T05:31:22.721Z,0
2019-01-17T05:32:03.329Z,0
2019-01-17T05:32:43.967Z,0
2019-01-17T05:33:24.588Z,0
2019-01-17T05:34:05.217Z,0
2019-01-17T05:34:45.835Z,0
2019-01-17T05:35:26.448Z,0
2019-01-17T05:36:07.065Z,0
2019-01-17T05:36:47.676Z,0
2019-01-17T05:37:28.288Z,0
2019-01-17T05:38:08.895Z,0
2019-01-17T05:38:49.493Z,0
2019-01-17T05:39:30.097Z,0
2019-01-17T05:40:10.715Z,0
2019-01-17T05:40:51.347Z,0
2019-01-17T05:41:31.955Z,0
2019-01-17T05:42:12.583Z,0
2019-01-17T05:42:53.197Z,0
2019-01-17T05:43:33.813Z,0
2019-01-17T05:44:14.407Z,0
2019-01-17T05:44:55.015Z,0
2019-01-17T05:45:35.631Z,0
2019-01-17T05:46:16.239Z,0
2019-01-17T05:46:56.858Z,0
2019-01-17T05:47:37.467Z,0
2019-01-17T05:48:18.077Z,0
2019-01-17T05:48:58.710Z,0
2019-01-17T05:49:39.316Z,0
2019-01-17T05:50:19.931Z,0
2019-01-17T05:51:00.551Z,0
2019-01-17T05:51:41.177Z,0
2019-01-17T05:52:21.855Z,0
2019-01-17T05:53:02.674Z,0
2019-01-17T05:53:43.417Z,0
2019-01-17T05:54:24.042Z,0
2019-01-17T05:55:04.653Z,0
2019-01-17T05:55:45.307Z,0
2019-01-17T05:56:25.969Z,0
2019-01-17T05:57:06.571Z,0
2019-01-17T05:57:47.173Z,0
2019-01-17T05:58:27.816Z,0
2019-01-17T05:59:08.662Z,0
2019-01-17T05:59:49.272Z,0
2019-01-17T06:00:29.887Z,0
2019-01-17T06:01:10.534Z,0
2019-01-17T06:01:51.129Z,0
2019-01-17T06:02:31.765Z,0
2019-01-17T06:03:12.383Z,0
2019-01-17T06:03:52.989Z,0
2019-01-17T06:04:33.587Z,0
2019-01-17T06:05:14.215Z,0
2019-01-17T06:05:54.809Z,0
2019-01-17T06:06:35.419Z,0
2019-01-17T06:07:16.053Z,0
2019-01-17T06:07:56.697Z,0
2019-01-17T06:08:37.305Z,0
2019-01-17T06:09:17.957Z,0
2019-01-17T06:09:58.565Z,0
2019-01-17T06:10:39.157Z,0
2019-01-17T06:11:19.763Z,0
2019-01-17T06:12:00.375Z,0
2019-01-17T06:12:40.980Z,0
2019-01-17T06:13:21.585Z,0
2019-01-17T06:14:02.201Z,0
2019-01-17T06:14:42.829Z,0
2019-01-17T06:15:23.435Z,0
2019-01-17T06:16:04.049Z,0
2019-01-17T06:16:44.653Z,0
2019-01-17T06:17:25.271Z,0
2019-01-17T06:18:05.918Z,0
2019-01-17T06:18:46.547Z,0
2019-01-17T06:19:27.159Z,0
2019-01-17T06:20:07.780Z,0
2019-01-17T06:20:48.388Z,0
2019-01-17T06:21:29.007Z,0
2019-01-17T06:22:09.619Z,0
2019-01-17T06:22:50.233Z,0
2019-01-17T06:23:30.858Z,0
2019-01-17T06:24:11.470Z,0
2019-01-17T06:24:52.072Z,0
2019-01-17T06:25:32.684Z,0
2019-01-17T06:26:13.293Z,0
2019-01-17T06:26:53.897Z,0
2019-01-17T06:27:34.504Z,0
2019-01-17T06:28:15.121Z,0
2019-01-17T06:28:55.729Z,0
2019-01-17T06:29:36.331Z,0
2019-01-17T06:30:16.951Z,0
2019-01-17T06:30:57.565Z,0
2019-01-17T06:31:38.181Z,0
2019-01-17T06:32:18.812Z,0
2019-01-17T06:32:59.420Z,0
2019-01-17T06:33:40.081Z,0
2019-01-17T06:34:20.687Z,0
2019-01-17T06:35:01.301Z,0
2019-01-17T06:35:41.898Z,0
2019-01-17T06:36:22.501Z,0
2019-01-17T06:37:03.100Z,0
2019-01-17T06:37:43.717Z,0
2019-01-17T06:38:24.319Z,0
2019-01-17T06:39:04.909Z,0
2019-01-17T06:39:45.719Z,0
2019-01-17T06:40:26.383Z,0
2019-01-17T06:41:07.056Z,0
2019-01-17T06:41:47.811Z,0
2019-01-17T06:42:28.415Z,0
2019-01-17T06:43:09.025Z,0
2019-01-17T06:43:49.634Z,0
2019-01-17T06:44:30.251Z,0
2019-01-17T06:45:10.904Z,0
2019-01-17T06:45:51.498Z,0
2019-01-17T06:46:32.109Z,0
2019-01-17T06:47:12.741Z,0
2019-01-17T06:47:53.351Z,0
2019-01-17T06:48:33.989Z,0
2019-01-17T06:49:14.625Z,0
2019-01-17T06:49:55.260Z,0
2019-01-17T06:50:35.911Z,0
2019-01-17T06:51:16.559Z,0
2019-01-17T06:51:57.205Z,0
2019-01-17T06:52:37.837Z,0
2019-01-17T06:53:18.669Z,0
2019-01-17T06:53:59.129Z,0
2019-01-17T06:54:39.797Z,0
2019-01-17T06:55:20.437Z,0
2019-01-17T06:56:01.088Z,0
2019-01-17T06:56:41.723Z,0
2019-01-17T06:57:22.361Z,0
2019-01-17T06:58:03.207Z,0
2019-01-17T06:58:43.833Z,4
2019-01-17T06:59:24.471Z,4
2019-01-17T07:00:05.089Z,4
2019-01-17T07:00:45.739Z,0
2019-01-17T07:01:26.480Z,0
2019-01-17T07:02:07.087Z,4
2019-01-17T07:02:47.765Z,4
2019-01-17T07:03:28.373Z,0
2019-01-17T07:04:09.084Z,0
2019-01-17T07:04:49.695Z,4
2019-01-17T07:05:30.315Z,4
2019-01-17T07:06:10.907Z,4
2019-01-17T07:06:51.514Z,4
2019-01-17T07:07:32.285Z,8
2019-01-17T07:08:12.913Z,4
2019-01-17T07:08:53.617Z,8
2019-01-17T07:09:34.239Z,8
2019-01-17T07:10:14.823Z,8
2019-01-17T07:10:55.427Z,8
2019-01-17T07:11:36.017Z,8
2019-01-17T07:12:16.777Z,8
2019-01-17T07:12:57.385Z,8
2019-01-17T07:13:37.995Z,12
2019-01-17T07:14:18.769Z,12
2019-01-17T07:14:59.369Z,12
2019-01-17T07:15:40.013Z,16
2019-01-17T07:16:20.621Z,16
2019-01-17T07:17:01.297Z,16
2019-01-17T07:17:41.915Z,20
2019-01-17T07:18:22.554Z,20
2019-01-17T07:19:03.195Z,24
2019-01-17T07:19:43.875Z,24
2019-01-17T07:20:24.529Z,24
2019-01-17T07:21:05.196Z,28
2019-01-17T07:21:45.840Z,28
2019-01-17T07:22:26.552Z,32
2019-01-17T07:23:07.173Z,32
2019-01-17T07:23:47.935Z,36
2019-01-17T07:24:28.427Z,36
2019-01-17T07:25:09.168Z,36
2019-01-17T07:25:49.863Z,40
2019-01-17T07:26:30.501Z,44
2019-01-17T07:27:11.145Z,44
2019-01-17T07:27:51.754Z,44
2019-01-17T07:28:32.367Z,48
2019-01-17T07:29:12.975Z,52
2019-01-17T07:29:53.620Z,52
2019-01-17T07:30:34.271Z,56
2019-01-17T07:31:14.884Z,56
2019-01-17T07:31:55.549Z,56
2019-01-17T07:32:36.193Z,56
2019-01-17T07:33:16.827Z,52
2019-01-17T07:33:57.433Z,56
2019-01-17T07:34:38.053Z,56
2019-01-17T07:35:18.735Z,56
2019-01-17T07:35:59.388Z,60
2019-01-17T07:36:40.013Z,64
2019-01-17T07:37:20.610Z,64
2019-01-17T07:38:01.231Z,64
2019-01-17T07:38:41.839Z,68
2019-01-17T07:39:22.457Z,72
2019-01-17T07:40:03.100Z,76
2019-01-17T07:40:43.746Z,80
2019-01-17T07:41:24.491Z,84
2019-01-17T07:42:05.051Z,92
2019-01-17T07:42:45.994Z,96
2019-01-17T07:43:26.675Z,100
2019-01-17T07:44:07.317Z,100
2019-01-17T07:44:47.952Z,100
2019-01-17T07:45:28.633Z,96
2019-01-17T07:46:09.363Z,100
2019-01-17T07:46:50.008Z,96
2019-01-17T07:47:30.622Z,100
2019-01-17T07:48:11.265Z,96
2019-01-17T07:48:51.866Z,96
2019-01-17T07:49:32.466Z,96
2019-01-17T07:50:13.085Z,96
2019-01-17T07:50:53.693Z,100
2019-01-17T07:51:34.316Z,96
2019-01-17T07:52:14.951Z,100
2019-01-17T07:52:55.553Z,100
2019-01-17T07:53:36.169Z,100
2019-01-17T07:54:16.781Z,104
2019-01-17T07:54:57.396Z,104
2019-01-17T07:55:38.006Z,104
2019-01-17T07:56:18.646Z,108
2019-01-17T07:56:59.289Z,108
2019-01-17T07:57:39.888Z,112
2019-01-17T07:58:20.514Z,112
2019-01-17T07:59:01.115Z,112
2019-01-17T07:59:41.779Z,120
2019-01-17T08:00:22.445Z,120
2019-01-17T08:01:03.123Z,120
2019-01-17T08:01:43.824Z,120
2019-01-17T08:02:24.436Z,128
2019-01-17T08:03:05.046Z,128
2019-01-17T08:03:45.651Z,132
2019-01-17T08:04:26.274Z,136
2019-01-17T08:05:06.946Z,144
2019-01-17T08:05:47.567Z,144
2019-01-17T08:06:28.181Z,152
2019-01-17T08:07:08.779Z,160
2019-01-17T08:07:49.415Z,160
2019-01-17T08:08:30.016Z,172
2019-01-17T08:09:10.633Z,180
2019-01-17T08:09:51.239Z,188
2019-01-17T08:10:31.835Z,196
2019-01-17T08:11:12.456Z,204
2019-01-17T08:11:53.082Z,220
2019-01-17T08:12:33.713Z,224
2019-01-17T08:13:14.309Z,236
2019-01-17T08:13:54.916Z,248
2019-01-17T08:14:35.540Z,256
2019-01-17T08:15:16.148Z,260
2019-01-17T08:15:57.993Z,268
2019-01-17T08:16:37.374Z,272
2019-01-17T08:17:18.001Z,276
2019-01-17T08:17:58.610Z,280
2019-01-17T08:18:39.216Z,284
2019-01-17T08:19:19.820Z,288
2019-01-17T08:20:00.476Z,296
2019-01-17T08:20:41.064Z,300
2019-01-17T08:21:21.676Z,308
2019-01-17T08:22:02.306Z,316
2019-01-17T08:22:42.912Z,328
2019-01-17T08:23:23.528Z,340
2019-01-17T08:24:04.201Z,348
2019-01-17T08:24:44.808Z,356
2019-01-17T08:25:25.419Z,364
2019-01-17T08:26:06.052Z,372
2019-01-17T08:26:46.652Z,376
2019-01-17T08:27:27.280Z,380
2019-01-17T08:28:07.896Z,384
2019-01-17T08:28:48.506Z,388
2019-01-17T08:29:29.139Z,392
2019-01-17T08:30:09.754Z,396
2019-01-17T08:30:50.367Z,396
2019-01-17T08:31:30.995Z,404
2019-01-17T08:32:11.628Z,408
2019-01-17T08:32:52.259Z,416
2019-01-17T08:33:32.867Z,428
2019-01-17T08:34:13.517Z,432
2019-01-17T08:34:54.129Z,436
2019-01-17T08:35:34.746Z,444
2019-01-17T08:36:15.345Z,448
2019-01-17T08:36:55.997Z,456
2019-01-17T08:37:36.618Z,464
2019-01-17T08:38:17.394Z,464
2019-01-17T08:38:58.001Z,472
2019-01-17T08:39:38.640Z,472
2019-01-17T08:40:20.315Z,476
2019-01-17T08:40:59.880Z,480
2019-01-17T08:41:40.504Z,480
2019-01-17T08:42:21.145Z,476
2019-01-17T08:43:01.762Z,476
2019-01-17T08:43:42.370Z,476
2019-01-17T08:44:22.968Z,476
2019-01-17T08:45:03.608Z,472
2019-01-17T08:45:44.228Z,476
2019-01-17T08:46:24.832Z,472
2019-01-17T08:47:05.492Z,472
2019-01-17T08:47:46.168Z,476
2019-01-17T08:48:26.836Z,476
2019-01-17T08:49:07.512Z,480
2019-01-17T08:49:48.154Z,484
2019-01-17T08:50:28.779Z,484
2019-01-17T08:51:09.418Z,484
2019-01-17T08:51:50.093Z,484
2019-01-17T08:52:30.773Z,480
2019-01-17T08:53:11.460Z,476
2019-01-17T08:53:52.126Z,476
2019-01-17T08:54:32.736Z,476
2019-01-17T08:55:13.354Z,472
2019-01-17T08:55:53.996Z,464
2019-01-17T08:56:34.670Z,460
2019-01-17T08:57:15.324Z,456
2019-01-17T08:57:55.932Z,452
2019-01-17T08:58:36.534Z,452
2019-01-17T08:59:17.148Z,456
2019-01-17T08:59:57.744Z,464
2019-01-17T09:00:38.412Z,472
2019-01-17T09:01:19.033Z,480
2019-01-17T09:01:59.672Z,484
2019-01-17T09:02:40.304Z,484
2019-01-17T09:03:20.946Z,484
2019-01-17T09:04:01.544Z,480
2019-01-17T09:04:42.159Z,472
2019-01-17T09:05:22.796Z,468
2019-01-17T09:06:03.478Z,468
2019-01-17T09:06:44.110Z,468
2019-01-17T09:07:24.716Z,472
2019-01-17T09:08:05.340Z,476
2019-01-17T09:08:45.946Z,476
2019-01-17T09:09:26.587Z,468
2019-01-17T09:10:07.157Z,468
2019-01-17T09:10:47.792Z,460
2019-01-17T09:11:28.410Z,452
2019-01-17T09:12:09.046Z,444
2019-01-17T09:12:49.666Z,444
2019-01-17T09:13:30.305Z,444
2019-01-17T09:14:10.912Z,444
2019-01-17T09:14:51.724Z,452
2019-01-17T09:15:32.450Z,456
2019-01-17T09:16:13.108Z,464
2019-01-17T09:16:53.728Z,476
2019-01-17T09:17:34.390Z,480
2019-01-17T09:18:15.102Z,484
2019-01-17T09:18:55.844Z,476
2019-01-17T09:19:36.528Z,460
2019-01-17T09:20:17.184Z,448
2019-01-17T09:20:57.780Z,444
2019-01-17T09:21:38.558Z,448
2019-01-17T09:22:19.182Z,456
2019-01-17T09:22:59.817Z,468
2019-01-17T09:23:40.432Z,468
2019-01-17T09:24:21.024Z,460
2019-01-17T09:25:01.684Z,448
2019-01-17T09:25:42.360Z,436
2019-01-17T09:26:22.985Z,428
2019-01-17T09:27:03.642Z,420
2019-01-17T09:27:44.293Z,412
2019-01-17T09:28:24.934Z,404
2019-01-17T09:29:05.558Z,400
2019-01-17T09:29:46.176Z,392
2019-01-17T09:30:26.780Z,388
2019-01-17T09:31:07.432Z,380
2019-01-17T09:31:48.156Z,376
2019-01-17T09:32:28.816Z,368
2019-01-17T09:33:09.426Z,364
2019-01-17T09:33:50.034Z,364
2019-01-17T09:34:30.644Z,364
2019-01-17T09:35:11.262Z,372
2019-01-17T09:35:51.879Z,376
2019-01-17T09:36:32.587Z,392
2019-01-17T09:37:13.232Z,404
2019-01-17T09:37:53.899Z,420
2019-01-17T09:38:34.644Z,436
2019-01-17T09:39:15.309Z,448
2019-01-17T09:39:55.958Z,456
2019-01-17T09:40:36.582Z,460
2019-01-17T09:41:17.204Z,460
2019-01-17T09:41:57.814Z,464
2019-01-17T09:42:38.423Z,468
2019-01-17T09:43:19.136Z,476
2019-01-17T09:43:59.764Z,484
2019-01-17T09:44:40.365Z,488
2019-01-17T09:45:20.996Z,496
2019-01-17T09:46:01.593Z,500
2019-01-17T09:46:42.205Z,500
2019-01-17T09:47:22.812Z,496
2019-01-17T09:48:03.426Z,492
2019-01-17T09:48:44.084Z,484
2019-01-17T09:49:24.692Z,480
2019-01-17T09:50:05.304Z,476
2019-01-17T09:50:45.901Z,476
2019-01-17T09:51:26.498Z,472